Time;durP1;ratioP1;P1;durP2;ratioP2;P2;SDS_P1;SDS_P2;PMS_P1;PMS_P2;Temp;Humidity;BMP_temperature;BMP_pressure;BME280_temperature;BME280_humidity;BME280_pressure;Samples;Min_cycle;Max_cycle;Signal;HPM_P1;HPM_P2
2023/07/02 00:00:33;;;;;;;6.30;3.90;;;20.40;76.00;;;;;;5085528;28;20823;-80
2023/07/02 00:03:01;;;;;;;7.70;4.17;;;20.40;76.20;;;;;;5084639;28;20476;-79
2023/07/02 00:05:29;;;;;;;8.03;4.10;;;20.40;76.30;;;;;;5085222;28;20880;-80
2023/07/02 00:07:58;;;;;;;8.40;5.20;;;20.40;76.30;;;;;;5084904;28;20445;-79
2023/07/02 00:10:26;;;;;;;7.10;4.43;;;20.40;76.20;;;;;;5065673;28;21006;-80
2023/07/02 00:12:53;;;;;;;6.63;4.20;;;20.50;76.30;;;;;;5081174;28;20543;-81
2023/07/02 00:15:23;;;;;;;7.03;4.20;;;20.50;76.20;;;;;;5080815;28;20455;-80
2023/07/02 00:17:51;;;;;;;7.60;4.50;;;20.50;76.20;;;;;;5067665;28;20480;-81
2023/07/02 00:20:19;;;;;;;6.97;3.90;;;20.50;76.20;;;;;;5083797;28;20512;-80
2023/07/02 00:22:49;;;;;;;6.70;4.33;;;20.40;76.30;;;;;;5056914;28;20552;-81
2023/07/02 00:25:17;;;;;;;9.40;4.00;;;20.40;76.40;;;;;;5067214;28;20460;-80
2023/07/02 00:27:45;;;;;;;6.50;4.13;;;20.40;76.40;;;;;;5067017;28;20462;-82
2023/07/02 00:30:15;;;;;;;7.60;4.67;;;20.30;76.40;;;;;;5068028;28;20476;-80
2023/07/02 00:32:44;;;;;;;6.17;3.73;;;20.30;76.40;;;;;;5064449;28;20992;-81
2023/07/02 00:35:12;;;;;;;6.33;3.90;;;20.30;76.40;;;;;;5085960;28;20464;-80
2023/07/02 00:37:41;;;;;;;6.80;4.10;;;20.30;76.30;;;;;;5068341;28;20468;-81
2023/07/02 00:40:10;;;;;;;6.90;3.43;;;20.30;76.20;;;;;;5065457;28;20453;-81
2023/07/02 00:42:38;;;;;;;7.40;3.80;;;20.30;76.30;;;;;;5069044;28;20453;-79
2023/07/02 00:45:08;;;;;;;7.40;4.43;;;20.30;76.20;;;;;;5080799;28;20480;-81
2023/07/02 00:47:36;;;;;;;7.90;4.10;;;20.30;76.10;;;;;;5068449;28;20462;-79
2023/07/02 00:50:09;;;;;;;6.67;4.10;;;20.30;76.00;;;;;;5082093;28;20462;-80
2023/07/02 00:52:38;;;;;;;6.73;3.63;;;20.30;76.00;;;;;;5078502;28;20470;-80
2023/07/02 00:55:07;;;;;;;9.90;3.87;;;20.20;75.90;;;;;;5063363;28;21082;-81
2023/07/02 00:57:35;;;;;;;6.23;3.60;;;20.20;75.90;;;;;;5060988;28;20473;-79
2023/07/02 01:00:07;;;;;;;7.50;3.20;;;20.20;75.90;;;;;;5083058;28;20473;-82
2023/07/02 01:02:36;;;;;;;7.53;4.00;;;20.20;75.70;;;;;;5067441;28;20791;-80
2023/07/02 01:05:05;;;;;;;8.83;3.57;;;20.20;75.70;;;;;;5082469;28;20460;-80
2023/07/02 01:07:33;;;;;;;7.03;3.63;;;20.20;75.60;;;;;;5084351;28;20476;-81
2023/07/02 01:10:01;;;;;;;7.23;3.90;;;20.20;75.60;;;;;;5087542;28;20475;-79
2023/07/02 01:12:31;;;;;;;9.07;4.03;;;20.20;75.40;;;;;;5080147;28;21063;-78
2023/07/02 01:15:02;;;;;;;8.63;3.80;;;20.10;75.30;;;;;;5082777;28;20461;-80
2023/07/02 01:17:39;;;;;;;7.47;3.40;;;20.10;75.20;;;;;;5077362;28;20472;-79
2023/07/02 01:20:10;;;;;;;9.13;3.20;;;20.10;75.20;;;;;;5080665;28;20499;-80
2023/07/02 01:22:39;;;;;;;6.37;3.03;;;20.10;75.10;;;;;;5075476;28;20460;-80
2023/07/02 01:25:08;;;;;;;7.00;3.30;;;20.10;75.00;;;;;;5078067;28;20796;-80
2023/07/02 01:27:37;;;;;;;6.20;3.27;;;20.10;74.90;;;;;;5062741;28;20449;-80
2023/07/02 01:30:08;;;;;;;13.37;3.63;;;20.10;74.70;;;;;;5061951;28;20971;-80
2023/07/02 01:32:36;;;;;;;6.13;2.97;;;20.10;74.60;;;;;;5081412;28;20452;-79
2023/07/02 01:35:24;;;;;;;7.80;3.33;;;20.00;74.50;;;;;;5080704;28;20453;-79
2023/07/02 01:37:53;;;;;;;6.77;3.30;;;20.00;74.30;;;;;;5071767;28;21259;-79
2023/07/02 01:40:21;;;;;;;8.47;3.30;;;19.90;74.20;;;;;;5064171;28;20469;-80
2023/07/02 01:42:49;;;;;;;6.20;3.10;;;19.90;74.20;;;;;;5079050;28;20953;-80
2023/07/02 01:45:17;;;;;;;10.00;2.90;;;19.90;74.20;;;;;;5079976;28;20464;-81
2023/07/02 01:47:45;;;;;;;8.00;3.50;;;19.90;74.10;;;;;;5085790;28;20469;-79
2023/07/02 01:50:13;;;;;;;12.60;3.20;;;19.90;74.00;;;;;;5064595;28;20458;-80
2023/07/02 01:52:42;;;;;;;8.17;3.20;;;19.90;73.90;;;;;;5069661;28;21216;-79
2023/07/02 01:55:10;;;;;;;7.60;3.40;;;19.90;73.80;;;;;;5081077;28;20764;-80
2023/07/02 01:57:39;;;;;;;7.53;3.07;;;19.90;73.70;;;;;;5072953;28;20449;-79
2023/07/02 02:00:09;;;;;;;6.77;3.27;;;19.90;73.60;;;;;;5069019;28;20528;-81
2023/07/02 02:02:44;;;;;;;7.30;3.13;;;19.80;73.60;;;;;;5084601;28;20551;-80
2023/07/02 02:05:12;;;;;;;8.10;3.37;;;19.80;73.40;;;;;;5080813;28;20457;-80
2023/07/02 02:07:42;;;;;;;6.97;2.90;;;19.70;73.40;;;;;;5073266;28;20517;-79
2023/07/02 02:10:28;;;;;;;5.80;2.80;;;19.70;73.40;;;;;;5089069;28;20445;-79
2023/07/02 02:12:56;;;;;;;7.20;3.23;;;19.70;73.30;;;;;;5053924;28;20938;-81
2023/07/02 02:15:24;;;;;;;9.60;3.20;;;19.60;73.20;;;;;;5087159;28;20467;-80
2023/07/02 02:17:52;;;;;;;6.00;2.97;;;19.60;73.10;;;;;;5064032;28;20457;-80
2023/07/02 02:20:20;;;;;;;9.90;3.23;;;19.60;73.10;;;;;;5085201;28;20478;-81
2023/07/02 02:22:51;;;;;;;5.20;2.60;;;19.50;73.10;;;;;;5063903;28;20457;-80
2023/07/02 02:25:19;;;;;;;6.13;2.60;;;19.60;73.00;;;;;;5069508;28;20460;-80
2023/07/02 02:27:47;;;;;;;8.13;2.93;;;19.50;72.90;;;;;;5085951;28;20468;-80
2023/07/02 02:30:15;;;;;;;5.10;2.50;;;19.50;72.90;;;;;;5071337;28;20465;-81
2023/07/02 02:32:43;;;;;;;6.10;2.60;;;19.50;72.80;;;;;;5064903;28;21082;-77
2023/07/02 02:35:12;;;;;;;7.87;3.20;;;19.40;72.70;;;;;;5071659;28;20465;-79
2023/07/02 02:37:40;;;;;;;7.57;2.50;;;19.40;72.60;;;;;;5068122;28;20448;-81
2023/07/02 02:40:12;;;;;;;7.57;2.30;;;19.40;72.60;;;;;;5069075;28;20562;-80
2023/07/02 02:42:41;;;;;;;5.60;2.33;;;19.30;72.50;;;;;;5068339;28;20460;-79
2023/07/02 02:45:09;;;;;;;7.23;2.70;;;19.30;72.50;;;;;;5070643;28;20568;-80
2023/07/02 02:47:37;;;;;;;7.17;2.93;;;19.30;72.50;;;;;;5088302;28;20541;-79
2023/07/02 02:50:07;;;;;;;7.07;2.77;;;19.30;72.60;;;;;;5080497;28;20578;-79
2023/07/02 02:52:35;;;;;;;6.63;2.43;;;19.30;72.50;;;;;;5065691;28;20502;-79
2023/07/02 02:55:03;;;;;;;6.53;2.60;;;19.30;72.40;;;;;;5083490;28;20769;-81
2023/07/02 02:57:32;;;;;;;10.00;3.27;;;19.30;72.40;;;;;;5066771;28;20468;-80
2023/07/02 03:00:00;;;;;;;6.93;2.50;;;19.30;72.40;;;;;;5087182;28;20507;-79
2023/07/02 03:02:28;;;;;;;6.63;2.83;;;19.20;72.30;;;;;;5065758;28;21080;-78
2023/07/02 03:05:02;;;;;;;5.13;2.40;;;19.20;72.30;;;;;;5065986;28;20508;-79
2023/07/02 03:07:30;;;;;;;7.57;2.30;;;19.20;72.30;;;;;;5078279;28;20483;-79
2023/07/02 03:09:58;;;;;;;6.47;2.83;;;19.20;72.30;;;;;;5086877;28;20456;-79
2023/07/02 03:12:27;;;;;;;7.00;3.00;;;19.20;72.30;;;;;;5080321;28;20541;-78
2023/07/02 03:14:56;;;;;;;5.97;2.47;;;19.20;72.20;;;;;;5068564;28;20463;-80
2023/07/02 03:17:24;;;;;;;5.50;2.43;;;19.10;72.20;;;;;;5083310;28;21196;-79
2023/07/02 03:19:52;;;;;;;7.10;2.37;;;19.10;72.30;;;;;;5085334;28;20484;-79
2023/07/02 03:22:20;;;;;;;6.00;2.60;;;19.10;72.30;;;;;;5074070;28;20471;-80
2023/07/02 03:24:48;;;;;;;5.40;2.33;;;19.00;72.20;;;;;;5086504;28;20463;-80
2023/07/02 03:27:17;;;;;;;7.37;3.17;;;19.00;72.30;;;;;;5084061;28;20476;-79
2023/07/02 03:29:45;;;;;;;7.30;3.23;;;19.00;72.30;;;;;;5068404;28;20458;-80
2023/07/02 03:32:14;;;;;;;6.50;2.90;;;19.00;72.30;;;;;;5083298;28;20498;-80
2023/07/02 03:34:43;;;;;;;8.77;2.90;;;18.90;72.20;;;;;;5068678;28;20555;-80
2023/07/02 03:37:11;;;;;;;5.80;2.83;;;18.90;72.20;;;;;;5069046;28;20461;-80
2023/07/02 03:39:39;;;;;;;5.70;2.80;;;18.90;72.10;;;;;;5074651;28;20996;-82
2023/07/02 03:42:07;;;;;;;6.93;3.20;;;18.90;72.10;;;;;;5086909;28;20461;-80
2023/07/02 03:44:35;;;;;;;9.47;3.53;;;18.90;72.10;;;;;;5084923;28;20477;-81
2023/07/02 03:47:03;;;;;;;8.80;3.70;;;18.90;72.00;;;;;;5072741;28;20877;-79
2023/07/02 03:49:33;;;;;;;7.90;3.40;;;18.90;71.90;;;;;;5088060;28;20475;-81
2023/07/02 03:52:01;;;;;;;9.80;3.93;;;18.90;71.80;;;;;;5085018;28;20853;-80
2023/07/02 03:54:28;;;;;;;7.93;3.77;;;18.80;71.80;;;;;;5066622;28;20461;-79
2023/07/02 03:56:56;;;;;;;8.53;4.17;;;18.80;71.80;;;;;;5082209;28;20446;-81
2023/07/02 03:59:24;;;;;;;11.03;4.60;;;18.90;71.80;;;;;;5079735;28;20456;-80
2023/07/02 04:01:52;;;;;;;8.23;4.33;;;18.90;71.70;;;;;;5086333;28;21028;-79
2023/07/02 04:04:20;;;;;;;10.53;4.60;;;18.80;71.60;;;;;;5080575;28;20467;-79
2023/07/02 04:06:50;;;;;;;11.43;4.80;;;18.80;71.50;;;;;;5088480;28;20461;-80
2023/07/02 04:09:18;;;;;;;11.67;4.97;;;18.80;71.50;;;;;;5082283;28;20455;-79
2023/07/02 04:11:47;;;;;;;12.53;5.47;;;18.80;71.50;;;;;;5065287;28;20508;-80
2023/07/02 04:14:15;;;;;;;13.50;5.33;;;18.90;71.50;;;;;;5089866;28;20946;-81
2023/07/02 04:16:45;;;;;;;11.43;5.90;;;18.90;71.40;;;;;;5066142;28;20452;-79
2023/07/02 04:19:12;;;;;;;9.77;4.83;;;19.00;71.30;;;;;;5089142;28;20466;-82
2023/07/02 04:21:41;;;;;;;10.80;5.83;;;19.00;71.10;;;;;;5066099;28;20533;-82
2023/07/02 04:24:10;;;;;;;13.20;5.90;;;19.10;71.10;;;;;;5084236;28;20471;-79
2023/07/02 04:26:41;;;;;;;10.97;6.27;;;19.20;71.00;;;;;;5083468;28;20447;-79
2023/07/02 04:29:29;;;;;;;15.33;6.00;;;19.20;70.90;;;;;;5081205;28;20698;-80
2023/07/02 04:31:58;;;;;;;13.50;6.03;;;19.30;70.80;;;;;;5082915;28;20487;-79
2023/07/02 04:34:26;;;;;;;11.87;5.50;;;19.50;70.70;;;;;;5068980;28;20500;-78
2023/07/02 04:36:54;;;;;;;11.63;6.07;;;19.60;70.50;;;;;;5068106;28;20453;-78
2023/07/02 04:39:23;;;;;;;13.03;6.10;;;19.70;70.30;;;;;;5082485;28;20461;-78
2023/07/02 04:41:52;;;;;;;13.93;6.20;;;19.80;70.10;;;;;;5084911;28;20487;-81
2023/07/02 04:44:21;;;;;;;12.53;6.23;;;19.90;70.00;;;;;;5081915;28;20461;-81
2023/07/02 04:46:49;;;;;;;13.93;6.37;;;20.00;69.80;;;;;;5067462;28;20463;-79
2023/07/02 04:49:17;;;;;;;12.50;6.03;;;20.20;69.60;;;;;;5068148;28;20471;-81
2023/07/02 04:51:45;;;;;;;12.53;5.77;;;20.20;69.20;;;;;;5068426;28;20888;-81
2023/07/02 04:54:13;;;;;;;11.40;5.97;;;20.30;69.00;;;;;;5080874;28;20460;-81
2023/07/02 04:56:42;;;;;;;12.50;5.63;;;20.40;68.80;;;;;;5084142;28;20468;-80
2023/07/02 04:59:10;;;;;;;11.60;5.80;;;20.40;68.60;;;;;;5082725;28;20468;-79
2023/07/02 05:01:38;;;;;;;9.83;5.23;;;20.40;68.30;;;;;;5077124;28;20544;-79
2023/07/02 05:04:07;;;;;;;14.30;5.93;;;20.40;68.00;;;;;;5062132;28;20463;-80
2023/07/02 05:06:35;;;;;;;14.33;6.40;;;20.30;68.00;;;;;;5079849;28;20449;-81
2023/07/02 05:09:03;;;;;;;11.63;6.00;;;20.20;67.80;;;;;;5087281;28;21072;-78
2023/07/02 05:11:31;;;;;;;12.20;6.40;;;20.10;67.70;;;;;;5070880;28;20460;-80
2023/07/02 05:14:00;;;;;;;12.83;6.77;;;20.00;67.80;;;;;;5072665;28;20463;-80
2023/07/02 05:16:28;;;;;;;13.10;6.60;;;20.00;67.80;;;;;;5083428;28;20485;-81
2023/07/02 05:18:56;;;;;;;11.70;6.27;;;20.10;68.10;;;;;;5085014;28;20460;-80
2023/07/02 05:21:24;;;;;;;16.07;7.20;;;20.30;68.10;;;;;;5079375;28;20465;-80
2023/07/02 05:23:53;;;;;;;15.33;6.63;;;20.50;68.00;;;;;;5063291;28;21338;-79
2023/07/02 05:26:22;;;;;;;16.00;6.10;;;20.70;67.90;;;;;;5062254;28;20454;-82
2023/07/02 05:28:51;;;;;;;14.40;6.30;;;20.90;67.60;;;;;;5067195;28;20954;-80
2023/07/02 05:31:21;;;;;;;16.23;7.70;;;21.20;67.40;;;;;;5068116;28;20469;-81
2023/07/02 05:33:50;;;;;;;13.70;7.20;;;21.30;67.00;;;;;;5083891;28;20448;-80
2023/07/02 05:36:18;;;;;;;10.47;5.33;;;21.50;67.00;;;;;;5079025;28;20464;-79
2023/07/02 05:38:46;;;;;;;16.30;6.80;;;21.70;66.90;;;;;;5067001;28;20465;-78
2023/07/02 05:41:19;;;;;;;12.93;6.40;;;21.90;66.90;;;;;;5067361;28;21692;-81
2023/07/02 05:43:47;;;;;;;14.53;6.83;;;22.30;66.70;;;;;;5069630;28;20461;-79
2023/07/02 05:46:16;;;;;;;12.93;7.23;;;22.90;66.20;;;;;;5082578;28;20453;-80
2023/07/02 05:48:45;;;;;;;15.57;6.50;;;23.80;64.40;;;;;;5087538;28;20504;-79
2023/07/02 05:51:21;;;;;;;15.00;6.70;;;24.70;62.40;;;;;;5086445;28;20452;-80
2023/07/02 05:53:49;;;;;;;11.60;6.03;;;25.60;60.80;;;;;;5083276;28;20449;-80
2023/07/02 05:56:19;;;;;;;12.10;6.47;;;26.40;59.60;;;;;;5084597;28;20449;-79
2023/07/02 05:58:49;;;;;;;11.87;6.60;;;27.10;58.50;;;;;;5090380;28;20970;-80
2023/07/02 06:01:17;;;;;;;12.87;7.00;;;27.70;57.50;;;;;;5089165;28;20838;-79
2023/07/02 06:03:50;;;;;;;12.97;6.87;;;28.20;56.70;;;;;;5081418;28;20457;-79
2023/07/02 06:06:18;;;;;;;14.97;7.80;;;28.50;55.70;;;;;;5073743;28;20456;-81
2023/07/02 06:08:46;;;;;;;15.10;7.70;;;28.90;54.90;;;;;;5090125;28;20471;-80
2023/07/02 06:11:14;;;;;;;18.70;8.37;;;29.10;54.40;;;;;;5083583;28;20474;-81
2023/07/02 06:13:42;;;;;;;20.80;8.47;;;29.50;53.70;;;;;;5085005;28;20845;-80
2023/07/02 06:16:10;;;;;;;15.10;8.10;;;29.60;53.30;;;;;;5070864;28;20457;-79
2023/07/02 06:18:38;;;;;;;16.10;7.97;;;29.30;52.90;;;;;;5077566;28;20460;-81
2023/07/02 06:21:07;;;;;;;13.67;8.10;;;28.80;53.10;;;;;;5081169;28;20531;-81
2023/07/02 06:23:42;;;;;;;18.37;8.80;;;27.90;53.00;;;;;;5071420;28;20461;-80
2023/07/02 06:26:11;;;;;;;14.73;7.60;;;26.80;53.30;;;;;;5084583;28;20452;-81
2023/07/02 06:28:39;;;;;;;13.77;8.40;;;25.90;54.40;;;;;;5077748;28;20471;-80
2023/07/02 06:31:08;;;;;;;15.23;8.20;;;25.20;55.30;;;;;;5068752;28;20536;-81
2023/07/02 06:33:40;;;;;;;18.10;8.07;;;24.80;55.80;;;;;;5084861;28;20507;-80
2023/07/02 06:36:09;;;;;;;18.67;8.67;;;24.30;56.20;;;;;;5070836;28;20457;-79
2023/07/02 06:38:40;;;;;;;15.40;8.87;;;23.80;56.80;;;;;;5078958;28;20966;-80
2023/07/02 06:41:08;;;;;;;17.03;8.23;;;23.30;57.30;;;;;;5066939;28;20486;-81
2023/07/02 06:43:36;;;;;;;16.93;8.30;;;22.90;57.90;;;;;;5088877;28;20453;-80
2023/07/02 06:46:04;;;;;;;16.03;9.00;;;22.60;58.40;;;;;;5088825;28;20452;-80
2023/07/02 06:48:32;;;;;;;14.83;8.50;;;22.40;59.20;;;;;;5088037;28;20480;-80
2023/07/02 06:51:00;;;;;;;16.00;8.40;;;22.20;59.70;;;;;;5087266;28;20556;-80
2023/07/02 06:53:30;;;;;;;16.40;9.20;;;22.10;60.10;;;;;;5084485;28;20469;-79
2023/07/02 06:55:57;;;;;;;17.30;9.80;;;22.00;60.40;;;;;;5077311;28;20545;-79
2023/07/02 06:58:25;;;;;;;18.80;9.60;;;21.90;60.80;;;;;;5087162;28;20449;-79
2023/07/02 07:00:53;;;;;;;18.83;8.50;;;21.80;61.10;;;;;;5086733;28;20898;-82
2023/07/02 07:03:21;;;;;;;17.90;9.70;;;21.80;61.40;;;;;;5084397;28;20488;-79
2023/07/02 07:05:50;;;;;;;16.43;9.20;;;21.80;61.50;;;;;;5081722;28;20448;-80
2023/07/02 07:08:20;;;;;;;17.30;9.60;;;21.80;61.80;;;;;;5084121;28;20452;-81
2023/07/02 07:10:50;;;;;;;17.63;8.80;;;21.80;62.10;;;;;;5077072;28;20449;-79
2023/07/02 07:13:19;;;;;;;16.90;9.10;;;21.80;62.10;;;;;;5086447;28;20538;-80
2023/07/02 07:15:47;;;;;;;15.47;8.53;;;21.80;62.30;;;;;;5086978;28;20461;-80
2023/07/02 07:18:15;;;;;;;14.17;7.93;;;21.80;62.60;;;;;;5086174;28;21171;-80
2023/07/02 07:20:43;;;;;;;14.23;8.13;;;21.80;62.60;;;;;;5072449;28;20464;-80
2023/07/02 07:23:12;;;;;;;20.17;8.70;;;21.80;62.80;;;;;;5083522;28;20573;-80
2023/07/02 07:25:40;;;;;;;18.93;8.70;;;21.90;63.00;;;;;;5085243;28;20456;-79
2023/07/02 07:28:11;;;;;;;17.47;8.33;;;21.90;63.10;;;;;;5085372;28;20452;-82
2023/07/02 07:30:39;;;;;;;15.07;8.90;;;22.00;63.20;;;;;;5070444;28;20475;-80
2023/07/02 07:33:07;;;;;;;16.13;9.27;;;22.00;63.30;;;;;;5072012;28;21005;-80
2023/07/02 07:35:35;;;;;;;17.00;9.33;;;22.10;63.20;;;;;;5081124;28;20449;-80
2023/07/02 07:38:03;;;;;;;17.33;9.73;;;22.00;63.30;;;;;;5081226;28;20918;-78
2023/07/02 07:40:31;;;;;;;20.43;9.53;;;22.00;63.40;;;;;;5072189;28;20449;-79
2023/07/02 07:42:59;;;;;;;15.20;9.20;;;22.00;63.30;;;;;;5085041;28;20531;-79
2023/07/02 07:45:28;;;;;;;16.53;9.93;;;22.00;63.30;;;;;;5065725;28;20468;-80
2023/07/02 07:47:56;;;;;;;19.57;10.77;;;21.90;63.30;;;;;;5088913;28;21085;-80
2023/07/02 07:50:24;;;;;;;18.20;9.87;;;21.80;63.40;;;;;;5080263;28;20458;-78
2023/07/02 07:52:53;;;;;;;17.90;9.73;;;21.80;63.50;;;;;;5082645;28;20448;-81
2023/07/02 07:55:21;;;;;;;17.97;10.43;;;21.70;63.60;;;;;;5082209;28;20462;-80
2023/07/02 07:57:49;;;;;;;15.53;9.87;;;21.70;63.70;;;;;;5088978;28;20854;-80
2023/07/02 08:00:18;;;;;;;18.03;9.97;;;21.60;63.70;;;;;;5068801;28;21231;-82
2023/07/02 08:02:48;;;;;;;18.57;10.00;;;21.60;63.90;;;;;;5085597;28;20504;-81
2023/07/02 08:05:16;;;;;;;17.53;9.80;;;21.50;63.90;;;;;;5084807;28;20507;-81
2023/07/02 08:07:44;;;;;;;15.53;9.73;;;21.40;64.00;;;;;;5084348;28;20540;-80
2023/07/02 08:10:12;;;;;;;16.47;9.07;;;21.40;64.10;;;;;;5084467;28;21016;-82
2023/07/02 08:12:40;;;;;;;19.33;9.50;;;21.40;64.20;;;;;;5088511;28;20475;-80
2023/07/02 08:15:09;;;;;;;17.00;10.47;;;21.40;64.30;;;;;;5079560;28;20455;-81
2023/07/02 08:17:37;;;;;;;17.33;9.33;;;21.40;64.30;;;;;;5087589;28;20456;-82
2023/07/02 08:20:21;;;;;;;19.60;9.70;;;21.50;64.30;;;;;;5089411;28;20455;-81
2023/07/02 08:22:51;;;;;;;16.67;9.57;;;21.50;64.30;;;;;;5083669;28;20525;-79
2023/07/02 08:25:21;;;;;;;19.80;9.13;;;21.50;64.30;;;;;;5085121;28;20437;-79
2023/07/02 08:27:51;;;;;;;17.00;9.00;;;21.50;64.10;;;;;;5088094;28;20478;-81
2023/07/02 08:30:19;;;;;;;18.87;9.80;;;21.50;64.20;;;;;;5083984;28;20457;-77
2023/07/02 08:32:47;;;;;;;16.60;9.33;;;21.50;64.20;;;;;;5083647;28;20448;-81
2023/07/02 08:35:15;;;;;;;19.83;9.30;;;21.60;64.10;;;;;;5079999;28;20470;-83
2023/07/02 08:37:44;;;;;;;16.00;8.77;;;21.60;64.20;;;;;;5083501;28;20456;-81
2023/07/02 08:40:20;;;;;;;21.73;10.13;;;21.60;63.90;;;;;;5082262;28;20453;-81
2023/07/02 08:42:48;;;;;;;20.57;10.10;;;21.60;63.80;;;;;;5068332;28;20882;-78
2023/07/02 08:45:16;;;;;;;16.40;9.70;;;21.60;64.00;;;;;;5088396;28;20449;-81
2023/07/02 08:47:45;;;;;;;17.03;9.40;;;21.70;63.90;;;;;;5085326;28;20495;-81
2023/07/02 08:50:14;;;;;;;16.43;9.20;;;21.70;63.80;;;;;;5080269;28;20531;-80
2023/07/02 08:52:44;;;;;;;15.23;9.40;;;21.70;63.60;;;;;;5081694;28;20476;-81
2023/07/02 08:55:12;;;;;;;18.87;9.67;;;21.70;63.70;;;;;;5080545;28;20457;-81
2023/07/02 08:57:42;;;;;;;15.67;8.47;;;21.70;63.60;;;;;;5084090;28;20814;-80
2023/07/02 09:00:11;;;;;;;15.90;8.93;;;21.70;63.50;;;;;;5083643;28;20458;-80
2023/07/02 09:02:39;;;;;;;18.70;8.50;;;21.80;63.40;;;;;;5081211;28;20474;-79
2023/07/02 09:05:08;;;;;;;16.07;9.00;;;21.80;63.50;;;;;;5077581;28;20539;-80
2023/07/02 09:07:46;;;;;;;15.73;9.30;;;21.90;63.40;;;;;;5088991;28;20495;-79
2023/07/02 09:10:27;;;;;;;15.30;8.70;;;21.90;63.10;;;;;;5076820;28;20484;-80
2023/07/02 09:13:05;;;;;;;12.80;7.77;;;21.90;62.80;;;;;;5076340;28;20461;-80
2023/07/02 09:15:38;;;;;;;16.60;8.53;;;21.90;62.60;;;;;;5091939;28;20452;-82
2023/07/02 09:18:16;;;;;;;15.30;8.20;;;21.90;62.60;;;;;;5089600;28;20467;-81
2023/07/02 09:20:44;;;;;;;14.20;7.70;;;21.90;62.30;;;;;;5069608;28;20456;-81
2023/07/02 09:23:14;;;;;;;13.67;7.80;;;21.90;62.30;;;;;;5087321;28;20476;-80
2023/07/02 09:25:42;;;;;;;12.50;7.50;;;21.90;62.20;;;;;;5064143;28;20467;-78
2023/07/02 09:28:17;;;;;;;13.53;7.23;;;22.00;62.00;;;;;;5072317;28;20535;-81
2023/07/02 09:30:53;;;;;;;13.70;7.37;;;22.00;61.90;;;;;;5087888;28;20488;-82
2023/07/02 09:33:21;;;;;;;15.73;7.50;;;21.90;61.40;;;;;;5059842;28;20546;-82
2023/07/02 09:35:51;;;;;;;12.80;7.80;;;21.90;61.60;;;;;;5065270;28;20458;-80
2023/07/02 09:38:21;;;;;;;16.10;7.87;;;22.00;61.70;;;;;;5075004;28;21042;-82
2023/07/02 09:40:51;;;;;;;17.23;7.53;;;22.10;61.40;;;;;;5090918;28;20552;-80
2023/07/02 09:43:20;;;;;;;11.00;6.57;;;22.20;61.30;;;;;;5084616;28;20988;-80
2023/07/02 09:45:50;;;;;;;14.80;6.73;;;22.20;61.00;;;;;;5068164;28;20452;-80
2023/07/02 09:48:20;;;;;;;15.17;7.23;;;22.20;60.80;;;;;;5080096;28;20514;-78
2023/07/02 09:50:49;;;;;;;13.30;7.43;;;22.30;60.50;;;;;;5069057;28;20452;-80
2023/07/02 09:53:19;;;;;;;17.43;7.40;;;22.30;60.50;;;;;;5089565;28;20445;-80
2023/07/02 09:55:47;;;;;;;12.73;7.50;;;22.30;60.40;;;;;;5068583;28;20456;-80
2023/07/02 09:58:17;;;;;;;12.50;7.27;;;22.40;60.20;;;;;;5091350;28;20465;-81
2023/07/02 10:00:44;;;;;;;16.23;7.57;;;22.40;60.10;;;;;;5090804;28;20495;-79
2023/07/02 10:03:13;;;;;;;15.03;7.80;;;22.50;60.10;;;;;;5090059;28;20661;-80
2023/07/02 10:05:41;;;;;;;14.70;7.77;;;22.50;60.10;;;;;;5088245;28;20834;-79
2023/07/02 10:08:13;;;;;;;17.67;8.73;;;22.50;60.10;;;;;;5086193;28;20458;-79
2023/07/02 10:10:43;;;;;;;15.40;7.80;;;22.50;59.80;;;;;;5085360;28;20454;-81
2023/07/02 10:13:12;;;;;;;13.70;7.93;;;22.50;59.70;;;;;;5083059;28;20453;-80
2023/07/02 10:15:41;;;;;;;14.83;8.40;;;22.50;59.80;;;;;;5081768;28;20453;-79
2023/07/02 10:18:09;;;;;;;13.43;7.63;;;22.50;59.90;;;;;;5088362;28;20813;-79
2023/07/02 10:20:39;;;;;;;15.80;8.23;;;22.50;59.90;;;;;;5090520;28;20457;-79
2023/07/02 10:23:09;;;;;;;11.50;7.60;;;22.60;59.50;;;;;;5083673;28;20457;-81
2023/07/02 10:25:38;;;;;;;16.63;8.43;;;22.60;59.40;;;;;;5067597;28;20545;-80
2023/07/02 10:28:17;;;;;;;14.57;8.80;;;22.60;59.10;;;;;;5078929;28;20464;-79
2023/07/02 10:30:45;;;;;;;16.93;9.10;;;22.50;59.10;;;;;;5082600;28;20504;-80
2023/07/02 10:33:16;;;;;;;17.43;8.57;;;22.50;59.20;;;;;;5062311;28;21023;-80
2023/07/02 10:35:47;;;;;;;14.43;8.60;;;22.50;59.40;;;;;;5087420;28;20468;-80
2023/07/02 10:38:16;;;;;;;17.97;9.00;;;22.60;59.30;;;;;;5070358;28;20508;-79
2023/07/02 10:40:46;;;;;;;18.87;8.93;;;22.60;59.20;;;;;;5086300;28;20465;-80
2023/07/02 10:43:25;;;;;;;14.20;8.27;;;22.60;59.10;;;;;;5072047;28;20440;-81
2023/07/02 10:45:59;;;;;;;19.80;10.50;;;22.70;58.90;;;;;;5082772;28;20450;-80
2023/07/02 10:48:28;;;;;;;16.67;9.57;;;22.70;58.90;;;;;;5070698;28;20552;-79
2023/07/02 10:50:56;;;;;;;19.57;10.50;;;22.70;59.00;;;;;;5069345;28;20457;-80
2023/07/02 10:53:26;;;;;;;15.80;9.97;;;22.80;59.00;;;;;;5085482;28;20820;-80
2023/07/02 10:55:55;;;;;;;15.00;9.27;;;22.90;59.00;;;;;;5079776;28;20515;-80
2023/07/02 10:58:26;;;;;;;19.40;9.80;;;23.00;58.50;;;;;;5082416;28;20450;-80
2023/07/02 11:00:54;;;;;;;17.17;9.60;;;23.00;58.10;;;;;;5082305;28;20568;-80
2023/07/02 11:03:24;;;;;;;16.40;9.60;;;23.00;58.30;;;;;;5084583;28;20869;-79
2023/07/02 11:05:55;;;;;;;23.20;11.07;;;23.00;58.20;;;;;;5088110;28;20449;-79
2023/07/02 11:08:24;;;;;;;19.80;11.63;;;23.00;58.30;;;;;;5085691;28;20557;-80
2023/07/02 11:11:05;;;;;;;19.17;11.20;;;23.00;58.30;;;;;;5077487;28;20457;-79
2023/07/02 11:13:34;;;;;;;17.33;10.40;;;23.10;58.20;;;;;;5084774;28;21038;-79
2023/07/02 11:16:25;;;;;;;17.07;9.80;;;23.10;58.00;;;;;;5063701;28;20454;-80
2023/07/02 11:18:54;;;;;;;14.73;9.20;;;23.20;57.70;;;;;;5084599;28;20483;-80
2023/07/02 11:21:22;;;;;;;16.20;10.37;;;23.30;57.70;;;;;;5081384;28;20455;-81
2023/07/02 11:23:50;;;;;;;16.90;9.53;;;23.30;57.10;;;;;;5067492;28;20469;-80
2023/07/02 11:26:18;;;;;;;18.50;10.70;;;23.30;56.90;;;;;;5085167;28;20453;-79
2023/07/02 11:28:52;;;;;;;18.90;10.60;;;23.30;57.10;;;;;;5065380;28;20509;-78
2023/07/02 11:31:27;;;;;;;16.27;10.80;;;23.40;56.90;;;;;;5084145;28;20993;-80
2023/07/02 11:33:58;;;;;;;16.80;9.67;;;23.40;56.90;;;;;;5087961;28;20445;-79
2023/07/02 11:36:26;;;;;;;18.40;10.40;;;23.40;56.90;;;;;;5083926;28;20460;-80
2023/07/02 11:38:56;;;;;;;20.70;10.80;;;23.40;56.90;;;;;;5087208;28;20441;-79
2023/07/02 11:41:24;;;;;;;26.83;11.47;;;23.40;56.60;;;;;;5087296;28;20433;-79
2023/07/02 11:43:53;;;;;;;20.50;10.10;;;23.50;56.30;;;;;;5089518;28;20452;-79
2023/07/02 11:46:21;;;;;;;20.50;10.77;;;23.50;56.30;;;;;;5067493;28;20461;-80
2023/07/02 11:48:49;;;;;;;16.97;10.77;;;23.50;56.10;;;;;;5087567;28;20479;-81
2023/07/02 11:51:17;;;;;;;16.57;10.27;;;23.60;56.00;;;;;;5085506;28;20460;-80
2023/07/02 11:53:45;;;;;;;19.53;10.57;;;23.60;55.90;;;;;;5084691;28;20464;-81
2023/07/02 11:56:13;;;;;;;19.27;10.40;;;23.50;56.00;;;;;;5084519;28;20453;-81
2023/07/02 11:58:42;;;;;;;15.63;9.53;;;23.50;56.10;;;;;;5086461;28;20471;-81
2023/07/02 12:01:12;;;;;;;16.80;9.00;;;23.60;56.00;;;;;;5086623;28;20484;-78
2023/07/02 12:03:44;;;;;;;18.33;9.50;;;23.70;55.70;;;;;;5082505;28;20840;-78
2023/07/02 12:06:12;;;;;;;16.67;10.00;;;23.80;55.70;;;;;;5081811;28;20504;-79
2023/07/02 12:08:40;;;;;;;19.50;10.83;;;23.90;55.50;;;;;;5086262;28;20449;-79
2023/07/02 12:11:09;;;;;;;18.10;10.50;;;24.00;55.50;;;;;;5068044;28;20537;-80
2023/07/02 12:13:37;;;;;;;17.90;11.23;;;24.00;55.60;;;;;;5083034;28;20536;-77
2023/07/02 12:16:05;;;;;;;21.47;10.93;;;24.10;55.40;;;;;;5069491;28;20479;-81
2023/07/02 12:18:34;;;;;;;18.53;11.30;;;24.10;55.10;;;;;;5086206;28;20794;-80
2023/07/02 12:21:02;;;;;;;19.10;10.50;;;24.20;54.70;;;;;;5086223;28;20467;-81
2023/07/02 12:23:30;;;;;;;20.73;11.53;;;24.20;54.70;;;;;;5083315;28;20440;-79
2023/07/02 12:25:58;;;;;;;23.30;12.07;;;24.30;54.60;;;;;;5085009;28;20816;-78
2023/07/02 12:28:26;;;;;;;18.67;11.30;;;24.30;54.40;;;;;;5084622;28;20440;-77
2023/07/02 12:30:54;;;;;;;18.30;11.20;;;24.40;54.10;;;;;;5066302;28;20468;-80
2023/07/02 12:33:22;;;;;;;21.47;11.27;;;24.40;54.00;;;;;;5083734;28;20528;-80
2023/07/02 12:35:51;;;;;;;18.40;11.50;;;24.30;54.10;;;;;;5065676;28;20457;-79
2023/07/02 12:38:19;;;;;;;23.57;11.20;;;24.40;54.10;;;;;;5066201;28;20887;-79
2023/07/02 12:40:48;;;;;;;23.40;11.60;;;24.40;54.00;;;;;;5083829;28;20449;-78
2023/07/02 12:43:16;;;;;;;19.57;10.67;;;24.40;53.90;;;;;;5085738;28;20453;-79
2023/07/02 12:45:44;;;;;;;19.87;11.40;;;24.40;53.40;;;;;;5074446;28;20527;-78
2023/07/02 12:48:12;;;;;;;18.87;12.23;;;24.50;53.40;;;;;;5084170;28;21094;-80